sensor_id;sensor_type;location;lat;lon;timestamp;P1;durP1;ratioP1;P2;durP2;ratioP2
18473;SDS011;30265;52.408;13.500;2023-05-07T00:09:35;19.08;;;11.68;;
18473;SDS011;30265;52.408;13.500;2023-05-07T00:19:57;17.85;;;9.93;;
18473;SDS011;30265;52.408;13.500;2023-05-07T00:30:21;17.05;;;10.60;;
18473;SDS011;30265;52.408;13.500;2023-05-07T00:40:44;17.00;;;10.27;;
18473;SDS011;30265;52.408;13.500;2023-05-07T00:51:08;16.75;;;9.38;;
18473;SDS011;30265;52.408;13.500;2023-05-07T01:22:29;13.85;;;8.40;;
18473;SDS011;30265;52.408;13.500;2023-05-07T01:32:53;19.52;;;10.73;;
18473;SDS011;30265;52.408;13.500;2023-05-07T01:43:25;15.95;;;10.10;;
18473;SDS011;30265;52.408;13.500;2023-05-07T01:53:49;17.27;;;10.40;;
18473;SDS011;30265;52.408;13.500;2023-05-07T02:04:15;20.57;;;10.43;;
18473;SDS011;30265;52.408;13.500;2023-05-07T02:25:46;21.38;;;10.25;;
18473;SDS011;30265;52.408;13.500;2023-05-07T02:36:15;15.80;;;10.32;;
18473;SDS011;30265;52.408;13.500;2023-05-07T03:10:17;17.00;;;9.57;;
18473;SDS011;30265;52.408;13.500;2023-05-07T03:20:40;15.45;;;10.20;;
18473;SDS011;30265;52.408;13.500;2023-05-07T03:31:03;16.98;;;9.13;;
18473;SDS011;30265;52.408;13.500;2023-05-07T03:41:32;15.75;;;8.75;;
18473;SDS011;30265;52.408;13.500;2023-05-07T03:51:57;16.83;;;10.40;;
18473;SDS011;30265;52.408;13.500;2023-05-07T04:02:22;16.15;;;9.43;;
18473;SDS011;30265;52.408;13.500;2023-05-07T04:12:46;19.02;;;10.00;;
18473;SDS011;30265;52.408;13.500;2023-05-07T04:23:12;19.40;;;10.05;;
18473;SDS011;30265;52.408;13.500;2023-05-07T04:33:36;15.00;;;8.77;;
18473;SDS011;30265;52.408;13.500;2023-05-07T04:44:00;8.97;;;6.83;;
18473;SDS011;30265;52.408;13.500;2023-05-07T04:54:36;14.20;;;8.13;;
18473;SDS011;30265;52.408;13.500;2023-05-07T05:05:04;15.25;;;9.80;;
18473;SDS011;30265;52.408;13.500;2023-05-07T05:15:34;13.85;;;7.63;;
18473;SDS011;30265;52.408;13.500;2023-05-07T05:26:03;5.45;;;3.97;;
18473;SDS011;30265;52.408;13.500;2023-05-07T05:36:29;10.98;;;6.93;;
18473;SDS011;30265;52.408;13.500;2023-05-07T05:46:51;11.35;;;6.78;;
18473;SDS011;30265;52.408;13.500;2023-05-07T05:57:17;11.88;;;5.60;;
18473;SDS011;30265;52.408;13.500;2023-05-07T06:07:39;9.93;;;6.55;;
18473;SDS011;30265;52.408;13.500;2023-05-07T06:18:04;10.38;;;6.55;;
18473;SDS011;30265;52.408;13.500;2023-05-07T06:28:27;9.02;;;6.45;;
18473;SDS011;30265;52.408;13.500;2023-05-07T06:39:04;7.78;;;5.32;;
18473;SDS011;30265;52.408;13.500;2023-05-07T06:49:29;9.93;;;6.47;;
18473;SDS011;30265;52.408;13.500;2023-05-07T06:59:53;12.10;;;6.80;;
18473;SDS011;30265;52.408;13.500;2023-05-07T07:10:24;8.95;;;6.10;;
18473;SDS011;30265;52.408;13.500;2023-05-07T07:20:50;7.32;;;5.20;;
18473;SDS011;30265;52.408;13.500;2023-05-07T07:31:12;6.90;;;4.65;;
18473;SDS011;30265;52.408;13.500;2023-05-07T07:41:40;5.82;;;3.65;;
18473;SDS011;30265;52.408;13.500;2023-05-07T07:52:26;6.65;;;2.83;;
18473;SDS011;30265;52.408;13.500;2023-05-07T08:02:58;5.97;;;4.50;;
18473;SDS011;30265;52.408;13.500;2023-05-07T08:13:29;6.90;;;3.92;;
18473;SDS011;30265;52.408;13.500;2023-05-07T08:23:55;5.93;;;4.07;;
18473;SDS011;30265;52.408;13.500;2023-05-07T08:34:23;4.95;;;3.38;;
18473;SDS011;30265;52.408;13.500;2023-05-07T08:45:20;4.00;;;2.85;;
18473;SDS011;30265;52.408;13.500;2023-05-07T08:55:44;4.28;;;3.05;;
18473;SDS011;30265;52.408;13.500;2023-05-07T09:06:09;4.13;;;2.53;;
18473;SDS011;30265;52.408;13.500;2023-05-07T09:16:32;3.53;;;2.60;;
18473;SDS011;30265;52.408;13.500;2023-05-07T09:26:56;5.90;;;2.40;;
18473;SDS011;30265;52.408;13.500;2023-05-07T09:37:23;2.92;;;2.03;;
18473;SDS011;30265;52.408;13.500;2023-05-07T09:47:49;4.43;;;2.92;;
18473;SDS011;30265;52.408;13.500;2023-05-07T09:58:16;3.50;;;2.28;;
18473;SDS011;30265;52.408;13.500;2023-05-07T10:08:41;4.13;;;2.70;;
18473;SDS011;30265;52.408;13.500;2023-05-07T10:19:04;2.10;;;1.77;;
18473;SDS011;30265;52.408;13.500;2023-05-07T10:29:32;3.15;;;2.10;;
18473;SDS011;30265;52.408;13.500;2023-05-07T10:40:01;3.08;;;2.25;;
18473;SDS011;30265;52.408;13.500;2023-05-07T10:50:25;3.58;;;2.03;;
18473;SDS011;30265;52.408;13.500;2023-05-07T11:00:56;4.05;;;2.08;;
18473;SDS011;30265;52.408;13.500;2023-05-07T11:22:37;3.65;;;2.10;;
18473;SDS011;30265;52.408;13.500;2023-05-07T11:33:25;3.97;;;2.10;;
18473;SDS011;30265;52.408;13.500;2023-05-07T11:43:54;6.50;;;1.92;;
18473;SDS011;30265;52.408;13.500;2023-05-07T11:54:19;3.17;;;1.67;;
18473;SDS011;30265;52.408;13.500;2023-05-07T12:04:41;6.33;;;2.10;;
18473;SDS011;30265;52.408;13.500;2023-05-07T12:15:04;3.20;;;1.85;;
18473;SDS011;30265;52.408;13.500;2023-05-07T12:25:26;5.23;;;1.83;;
18473;SDS011;30265;52.408;13.500;2023-05-07T12:35:54;4.87;;;1.80;;
18473;SDS011;30265;52.408;13.500;2023-05-07T12:46:17;3.95;;;2.10;;
18473;SDS011;30265;52.408;13.500;2023-05-07T12:56:40;3.78;;;1.80;;
18473;SDS011;30265;52.408;13.500;2023-05-07T13:07:02;1.60;;;1.50;;
18473;SDS011;30265;52.408;13.500;2023-05-07T13:28:41;1.95;;;1.45;;
18473;SDS011;30265;52.408;13.500;2023-05-07T13:39:03;2.78;;;1.77;;
18473;SDS011;30265;52.408;13.500;2023-05-07T13:49:27;3.75;;;1.80;;
18473;SDS011;30265;52.408;13.500;2023-05-07T14:10:12;2.17;;;1.50;;
18473;SDS011;30265;52.408;13.500;2023-05-07T14:20:34;2.75;;;1.92;;
18473;SDS011;30265;52.408;13.500;2023-05-07T14:30:58;2.90;;;1.73;;
18473;SDS011;30265;52.408;13.500;2023-05-07T14:41:21;3.00;;;1.85;;
18473;SDS011;30265;52.408;13.500;2023-05-07T14:51:45;2.20;;;1.60;;
18473;SDS011;30265;52.408;13.500;2023-05-07T15:02:07;3.00;;;1.77;;
18473;SDS011;30265;52.408;13.500;2023-05-07T15:12:31;4.03;;;2.10;;
18473;SDS011;30265;52.408;13.500;2023-05-07T15:22:53;2.70;;;2.03;;
18473;SDS011;30265;52.408;13.500;2023-05-07T15:33:16;4.68;;;1.90;;
18473;SDS011;30265;52.408;13.500;2023-05-07T15:43:38;5.15;;;1.90;;
18473;SDS011;30265;52.408;13.500;2023-05-07T15:54:07;4.53;;;1.98;;
18473;SDS011;30265;52.408;13.500;2023-05-07T16:04:28;4.47;;;2.47;;
18473;SDS011;30265;52.408;13.500;2023-05-07T16:14:51;6.53;;;2.67;;
18473;SDS011;30265;52.408;13.500;2023-05-07T16:25:13;2.67;;;2.00;;
18473;SDS011;30265;52.408;13.500;2023-05-07T16:35:37;2.67;;;2.30;;
18473;SDS011;30265;52.408;13.500;2023-05-07T16:45:59;3.22;;;1.70;;
18473;SDS011;30265;52.408;13.500;2023-05-07T16:56:21;2.70;;;1.80;;
18473;SDS011;30265;52.408;13.500;2023-05-07T17:06:42;2.85;;;2.00;;
18473;SDS011;30265;52.408;13.500;2023-05-07T17:17:06;2.67;;;1.83;;
18473;SDS011;30265;52.408;13.500;2023-05-07T17:27:28;3.88;;;2.08;;
18473;SDS011;30265;52.408;13.500;2023-05-07T17:37:51;4.25;;;2.58;;
18473;SDS011;30265;52.408;13.500;2023-05-07T17:48:13;3.70;;;2.60;;
18473;SDS011;30265;52.408;13.500;2023-05-07T17:58:37;3.75;;;2.15;;
18473;SDS011;30265;52.408;13.500;2023-05-07T18:09:17;4.20;;;2.08;;
18473;SDS011;30265;52.408;13.500;2023-05-07T18:19:40;2.90;;;1.70;;
18473;SDS011;30265;52.408;13.500;2023-05-07T18:30:02;4.28;;;2.20;;
18473;SDS011;30265;52.408;13.500;2023-05-07T18:40:26;3.65;;;2.10;;
18473;SDS011;30265;52.408;13.500;2023-05-07T18:50:47;4.03;;;2.08;;
18473;SDS011;30265;52.408;13.500;2023-05-07T19:01:10;4.28;;;2.22;;
18473;SDS011;30265;52.408;13.500;2023-05-07T19:11:32;2.97;;;2.05;;
18473;SDS011;30265;52.408;13.500;2023-05-07T19:21:55;2.55;;;2.10;;
18473;SDS011;30265;52.408;13.500;2023-05-07T19:32:17;4.95;;;2.65;;
18473;SDS011;30265;52.408;13.500;2023-05-07T19:42:41;4.53;;;2.33;;
18473;SDS011;30265;52.408;13.500;2023-05-07T19:53:03;5.32;;;2.60;;
18473;SDS011;30265;52.408;13.500;2023-05-07T20:03:26;7.00;;;3.08;;
18473;SDS011;30265;52.408;13.500;2023-05-07T20:13:48;6.25;;;3.30;;
18473;SDS011;30265;52.408;13.500;2023-05-07T20:24:11;5.07;;;3.95;;
18473;SDS011;30265;52.408;13.500;2023-05-07T20:34:33;7.93;;;6.78;;
18473;SDS011;30265;52.408;13.500;2023-05-07T20:44:56;5.03;;;3.38;;
18473;SDS011;30265;52.408;13.500;2023-05-07T20:55:19;6.75;;;3.83;;
18473;SDS011;30265;52.408;13.500;2023-05-07T21:05:42;5.32;;;3.30;;
18473;SDS011;30265;52.408;13.500;2023-05-07T21:16:10;6.43;;;4.00;;
18473;SDS011;30265;52.408;13.500;2023-05-07T21:26:34;5.22;;;3.92;;
18473;SDS011;30265;52.408;13.500;2023-05-07T21:37:05;4.78;;;3.95;;
18473;SDS011;30265;52.408;13.500;2023-05-07T21:47:28;5.30;;;3.63;;
18473;SDS011;30265;52.408;13.500;2023-05-07T21:57:50;7.50;;;4.30;;
18473;SDS011;30265;52.408;13.500;2023-05-07T22:08:26;4.88;;;3.95;;
18473;SDS011;30265;52.408;13.500;2023-05-07T22:18:51;5.10;;;3.80;;
18473;SDS011;30265;52.408;13.500;2023-05-07T22:29:14;10.70;;;3.40;;
18473;SDS011;30265;52.408;13.500;2023-05-07T22:39:35;6.57;;;4.38;;
18473;SDS011;30265;52.408;13.500;2023-05-07T22:49:59;5.78;;;4.18;;
18473;SDS011;30265;52.408;13.500;2023-05-07T23:00:24;8.88;;;5.38;;
18473;SDS011;30265;52.408;13.500;2023-05-07T23:10:47;7.07;;;5.25;;
18473;SDS011;30265;52.408;13.500;2023-05-07T23:21:09;8.65;;;5.03;;
18473;SDS011;30265;52.408;13.500;2023-05-07T23:31:31;9.02;;;4.97;;
18473;SDS011;30265;52.408;13.500;2023-05-07T23:41:53;6.57;;;4.95;;
18473;SDS011;30265;52.408;13.500;2023-05-07T23:52:18;7.85;;;5.68;;
